createdAt,value
2022-12-09T00:01:14.383Z,18.10
2022-12-09T00:03:41.805Z,17.23
2022-12-09T00:06:23.533Z,16.30
2022-12-09T00:08:50.677Z,15.27
2022-12-09T00:11:20.499Z,15.93
2022-12-09T00:13:52.357Z,16.95
2022-12-09T00:16:19.948Z,18.23
2022-12-09T00:18:47.598Z,17.88
2022-12-09T00:21:19.857Z,15.43
2022-12-09T00:23:47.345Z,17.58
2022-12-09T00:26:17.894Z,16.75
2022-12-09T00:28:44.455Z,16.70
2022-12-09T00:31:14.824Z,17.90
2022-12-09T00:33:41.569Z,16.48
2022-12-09T00:36:16.637Z,16.33
2022-12-09T00:38:43.960Z,17.02
2022-12-09T00:41:11.158Z,17.17
2022-12-09T00:43:38.050Z,16.83
2022-12-09T00:46:04.910Z,17.25
2022-12-09T00:48:34.240Z,19.40
2022-12-09T00:51:02.109Z,18.50
2022-12-09T00:53:28.684Z,19.98
2022-12-09T00:55:55.174Z,18.77
2022-12-09T00:58:24.556Z,19.70
2022-12-09T01:00:53.895Z,19.92
2022-12-09T01:03:20.980Z,21.42
2022-12-09T01:05:47.759Z,20.00
2022-12-09T01:08:16.244Z,20.90
2022-12-09T01:10:45.909Z,22.80
2022-12-09T01:13:14.525Z,20.48
2022-12-09T01:15:41.640Z,20.95
2022-12-09T01:18:08.649Z,21.48
2022-12-09T01:20:38.538Z,21.63
2022-12-09T01:23:05.292Z,20.17
2022-12-09T01:25:31.872Z,19.52
2022-12-09T01:27:58.593Z,18.83
2022-12-09T01:30:25.349Z,18.58
2022-12-09T01:32:52.035Z,18.52
2022-12-09T01:35:18.923Z,19.60
2022-12-09T01:37:45.376Z,19.98
2022-12-09T01:40:18.407Z,18.88
2022-12-09T01:42:45.538Z,18.60
2022-12-09T01:45:21.496Z,18.98
2022-12-09T01:47:51.479Z,19.02
2022-12-09T01:50:18.364Z,18.80
2022-12-09T01:52:46.244Z,18.75
2022-12-09T01:55:13.502Z,19.67
2022-12-09T01:57:41.065Z,18.88
2022-12-09T02:00:08.361Z,19.75
2022-12-09T02:02:39.889Z,19.02
2022-12-09T02:05:07.463Z,20.98
2022-12-09T02:07:37.398Z,21.45
2022-12-09T02:10:08.873Z,21.00
2022-12-09T02:12:55.938Z,20.77
2022-12-09T02:15:35.099Z,19.35
2022-12-09T02:18:07.893Z,19.95
2022-12-09T02:20:52.672Z,21.05
2022-12-09T02:23:35.690Z,20.17
2022-12-09T02:26:25.145Z,19.92
2022-12-09T02:29:11.978Z,20.05
2022-12-09T02:31:54.147Z,19.75
2022-12-09T02:34:23.272Z,19.25
2022-12-09T02:37:00.436Z,18.52
2022-12-09T02:39:38.282Z,20.20
2022-12-09T02:42:08.388Z,19.85
2022-12-09T02:44:39.488Z,19.27
2022-12-09T02:47:10.251Z,18.38
2022-12-09T02:49:40.756Z,19.02
2022-12-09T02:52:10.462Z,18.92
2022-12-09T02:54:38.670Z,18.35
2022-12-09T02:57:12.912Z,19.67
2022-12-09T02:59:39.510Z,18.92
2022-12-09T03:02:20.180Z,20.40
2022-12-09T03:04:57.363Z,19.95
2022-12-09T03:07:49.307Z,19.92
2022-12-09T03:10:53.639Z,19.73
2022-12-09T03:16:14.784Z,20.08
2022-12-09T03:18:47.807Z,19.90
2022-12-09T03:21:18.828Z,22.95
2022-12-09T03:23:46.822Z,22.35
2022-12-09T03:26:15.858Z,22.63
2022-12-09T03:28:50.122Z,22.30
2022-12-09T03:31:19.994Z,22.27
2022-12-09T03:33:52.320Z,23.60
2022-12-09T03:36:20.919Z,22.83
2022-12-09T03:38:49.135Z,22.80
2022-12-09T03:41:29.605Z,23.45
2022-12-09T03:44:09.136Z,22.63
2022-12-09T03:46:38.597Z,22.88
2022-12-09T03:49:06.300Z,22.95
2022-12-09T03:51:45.130Z,23.85
2022-12-09T03:54:29.713Z,23.40
2022-12-09T03:56:58.481Z,22.92
2022-12-09T03:59:29.389Z,23.08
2022-12-09T04:01:56.550Z,22.75
2022-12-09T04:04:23.638Z,22.73
2022-12-09T04:06:52.981Z,22.55
2022-12-09T04:09:20.005Z,23.85
2022-12-09T04:11:46.942Z,23.38
2022-12-09T04:14:15.810Z,23.48
2022-12-09T04:16:45.592Z,23.35
2022-12-09T04:19:12.543Z,23.73
2022-12-09T04:21:39.828Z,24.40
2022-12-09T04:24:09.440Z,23.83
2022-12-09T04:26:36.249Z,24.08
2022-12-09T04:29:03.672Z,24.38
2022-12-09T04:31:32.508Z,24.33
2022-12-09T04:34:06.773Z,24.10
2022-12-09T04:36:35.725Z,24.27
2022-12-09T04:39:04.755Z,24.38
2022-12-09T04:41:33.939Z,24.02
2022-12-09T04:44:01.561Z,23.73
2022-12-09T04:46:28.563Z,23.52
2022-12-09T04:48:55.634Z,23.75
2022-12-09T04:51:22.271Z,24.48
2022-12-09T04:53:48.784Z,23.08
2022-12-09T04:56:19.073Z,24.25
2022-12-09T04:58:46.405Z,23.48
2022-12-09T05:01:18.119Z,24.23
2022-12-09T05:03:49.257Z,24.98
2022-12-09T05:06:17.045Z,22.20
2022-12-09T05:08:43.930Z,23.30
2022-12-09T05:11:11.348Z,22.38
2022-12-09T05:13:40.722Z,23.23
2022-12-09T05:16:16.277Z,28.85
2022-12-09T05:18:44.777Z,42.22
2022-12-09T05:21:16.734Z,32.75
2022-12-09T05:23:44.350Z,41.35
2022-12-09T05:26:17.923Z,39.58
2022-12-09T05:28:44.564Z,35.33
2022-12-09T05:31:15.542Z,33.00
2022-12-09T05:33:46.231Z,33.25
2022-12-09T05:36:15.759Z,30.60
2022-12-09T05:38:43.759Z,28.52
2022-12-09T05:41:11.308Z,25.92
2022-12-09T05:43:41.098Z,24.00
2022-12-09T05:46:10.295Z,23.08
2022-12-09T05:48:37.390Z,22.77
2022-12-09T05:51:07.280Z,23.92
2022-12-09T05:53:34.686Z,23.50
2022-12-09T05:56:01.927Z,23.02
2022-12-09T05:58:29.048Z,25.75
2022-12-09T06:00:58.639Z,24.27
2022-12-09T06:03:25.512Z,24.55
2022-12-09T06:05:52.526Z,24.30
2022-12-09T06:08:21.950Z,26.10
2022-12-09T06:10:49.076Z,25.20
2022-12-09T06:13:18.840Z,25.00
2022-12-09T06:15:53.198Z,24.83
2022-12-09T06:18:19.985Z,24.83
2022-12-09T06:20:46.655Z,25.00
2022-12-09T06:23:13.643Z,24.45
2022-12-09T06:25:44.703Z,23.67
2022-12-09T06:28:11.812Z,26.50
2022-12-09T06:30:38.951Z,33.75
2022-12-09T06:33:17.487Z,26.55
2022-12-09T06:35:52.789Z,25.83
2022-12-09T06:38:21.988Z,24.08
2022-12-09T06:40:48.681Z,26.15
2022-12-09T06:43:15.593Z,26.27
2022-12-09T06:45:42.290Z,25.08
2022-12-09T06:48:09.230Z,26.08
2022-12-09T06:50:38.525Z,26.40
2022-12-09T06:53:05.487Z,26.60
2022-12-09T06:55:32.373Z,25.23
2022-12-09T06:57:59.867Z,25.73
2022-12-09T07:00:26.754Z,25.65
2022-12-09T07:02:54.465Z,25.15
2022-12-09T07:05:21.504Z,24.23
2022-12-09T07:07:52.403Z,25.98
2022-12-09T07:10:20.720Z,25.42
2022-12-09T07:12:50.128Z,25.70
2022-12-09T07:15:17.030Z,26.83
2022-12-09T07:17:43.921Z,26.25
2022-12-09T07:20:11.233Z,30.05
2022-12-09T07:22:38.009Z,25.42
2022-12-09T07:25:08.174Z,26.10
2022-12-09T07:27:35.619Z,26.40
2022-12-09T07:30:04.810Z,52.45
2022-12-09T07:32:31.569Z,33.42
2022-12-09T07:34:58.643Z,33.08
2022-12-09T07:37:27.834Z,25.30
2022-12-09T07:39:54.662Z,21.52
2022-12-09T07:42:23.522Z,21.88
2022-12-09T07:44:52.820Z,20.45
2022-12-09T07:47:19.759Z,20.23
2022-12-09T07:49:46.830Z,20.88
2022-12-09T07:52:14.148Z,19.50
2022-12-09T07:54:40.742Z,21.05
2022-12-09T07:57:12.519Z,19.58
2022-12-09T07:59:39.212Z,19.13
2022-12-09T08:02:06.689Z,19.63
2022-12-09T08:04:38.610Z,19.92
2022-12-09T08:07:05.627Z,19.02
2022-12-09T08:09:35.631Z,19.02
2022-12-09T08:12:05.225Z,18.55
2022-12-09T08:14:32.296Z,19.33
2022-12-09T08:17:02.122Z,20.33
2022-12-09T08:19:31.598Z,19.40
2022-12-09T08:21:58.715Z,20.73
2022-12-09T08:24:28.155Z,21.63
2022-12-09T08:26:55.047Z,21.13
2022-12-09T08:29:22.288Z,20.65
2022-12-09T08:31:49.085Z,22.35
2022-12-09T08:34:16.151Z,21.40
2022-12-09T08:36:43.666Z,22.48
2022-12-09T08:39:13.907Z,22.60
2022-12-09T08:41:41.133Z,22.88
2022-12-09T08:44:19.597Z,21.83
2022-12-09T08:46:51.246Z,22.70
2022-12-09T08:49:21.173Z,22.55
2022-12-09T08:51:50.201Z,22.90
2022-12-09T08:54:17.372Z,22.75
2022-12-09T08:56:46.281Z,21.50
2022-12-09T08:59:16.214Z,22.30
2022-12-09T09:01:43.146Z,20.80
2022-12-09T09:04:13.270Z,21.90
2022-12-09T09:06:42.455Z,22.83
2022-12-09T09:09:11.637Z,21.73
2022-12-09T09:11:40.367Z,21.77
2022-12-09T09:14:11.823Z,21.38
2022-12-09T09:16:40.889Z,22.65
2022-12-09T09:19:10.562Z,20.65
2022-12-09T09:21:37.770Z,20.60
2022-12-09T09:24:09.526Z,21.75
2022-12-09T09:26:40.017Z,21.00
2022-12-09T09:29:10.526Z,20.95
2022-12-09T09:31:40.204Z,21.58
2022-12-09T09:34:10.161Z,20.65
2022-12-09T09:36:37.032Z,21.77
2022-12-09T09:39:06.842Z,22.25
2022-12-09T09:41:48.896Z,21.75
2022-12-09T09:44:28.135Z,21.52
2022-12-09T09:46:56.789Z,20.95
2022-12-09T09:49:33.621Z,21.20
2022-12-09T09:52:07.286Z,20.08
2022-12-09T09:54:34.468Z,20.67
2022-12-09T09:57:17.359Z,19.65
2022-12-09T10:00:00.751Z,19.92
2022-12-09T10:02:37.927Z,19.70
2022-12-09T10:05:05.777Z,19.88
2022-12-09T10:07:42.395Z,19.95
2022-12-09T10:10:21.754Z,18.67
2022-12-09T10:13:07.205Z,19.95
2022-12-09T10:15:41.946Z,19.45
2022-12-09T10:18:21.007Z,19.40
2022-12-09T10:20:48.139Z,18.38
2022-12-09T10:23:17.280Z,19.10
2022-12-09T10:25:49.197Z,18.63
2022-12-09T10:28:26.953Z,18.77
2022-12-09T10:30:55.650Z,19.10
2022-12-09T10:33:39.139Z,19.05
2022-12-09T10:36:07.783Z,24.75
2022-12-09T10:38:40.540Z,20.55
2022-12-09T10:41:13.912Z,21.23
2022-12-09T10:43:44.120Z,21.77
2022-12-09T10:46:21.890Z,19.30
2022-12-09T10:48:49.402Z,18.65
2022-12-09T10:51:27.008Z,19.92
2022-12-09T10:53:56.748Z,19.15
2022-12-09T10:56:27.449Z,18.63
2022-12-09T10:59:22.527Z,19.45
2022-12-09T11:01:58.873Z,18.65
2022-12-09T11:04:30.061Z,18.48
2022-12-09T11:07:03.065Z,19.23
2022-12-09T11:09:29.884Z,20.30
2022-12-09T11:11:56.983Z,20.10
2022-12-09T11:14:30.521Z,20.23
2022-12-09T11:17:00.630Z,19.35
2022-12-09T11:19:36.999Z,33.03
2022-12-09T11:22:40.337Z,34.00
2022-12-09T11:25:15.774Z,22.77
2022-12-09T11:27:50.800Z,20.27
2022-12-09T11:30:20.220Z,20.48
2022-12-09T11:33:21.262Z,22.15
2022-12-09T11:35:47.959Z,20.40
2022-12-09T11:38:30.070Z,20.55
2022-12-09T11:41:15.497Z,20.25
2022-12-09T11:43:50.493Z,20.15
2022-12-09T11:46:22.555Z,19.40
2022-12-09T11:49:00.757Z,19.98
2022-12-09T11:51:35.070Z,21.15
2022-12-09T11:54:15.198Z,20.40
2022-12-09T11:56:43.000Z,20.33
2022-12-09T11:59:18.171Z,20.27
2022-12-09T12:01:52.447Z,20.05
2022-12-09T12:04:26.738Z,20.52
2022-12-09T12:07:03.176Z,19.80
2022-12-09T12:09:40.597Z,19.45
2022-12-09T12:12:16.356Z,20.67
2022-12-09T12:14:44.049Z,21.75
2022-12-09T12:17:32.179Z,21.35
2022-12-09T12:19:59.246Z,20.55
2022-12-09T12:22:51.538Z,20.67
2022-12-09T12:25:26.875Z,19.30
2022-12-09T12:28:14.290Z,21.05
2022-12-09T12:30:59.602Z,20.33
2022-12-09T12:36:28.772Z,21.17
2022-12-09T12:39:14.168Z,23.70
2022-12-09T12:41:46.700Z,20.60
2022-12-09T12:44:55.118Z,19.83
2022-12-09T12:47:34.427Z,21.27
2022-12-09T12:50:29.114Z,21.02
2022-12-09T12:53:07.924Z,20.02
2022-12-09T12:56:05.556Z,20.42
2022-12-09T12:58:50.351Z,20.77
2022-12-09T13:01:34.396Z,20.58
2022-12-09T13:04:12.657Z,20.77
2022-12-09T13:06:43.891Z,21.63
2022-12-09T13:09:40.459Z,20.10
2022-12-09T13:12:50.911Z,20.88
2022-12-09T13:15:21.494Z,21.02
2022-12-09T13:17:49.491Z,19.88
2022-12-09T13:20:27.594Z,24.88
2022-12-09T13:23:03.806Z,24.38
2022-12-09T13:25:37.641Z,22.55
2022-12-09T13:28:10.912Z,22.42
2022-12-09T13:30:52.658Z,22.45
2022-12-09T13:33:48.375Z,21.67
2022-12-09T13:36:42.779Z,21.58
2022-12-09T13:39:41.533Z,22.23
2022-12-09T13:42:46.297Z,23.15
2022-12-09T13:45:22.723Z,21.02
2022-12-09T13:47:50.207Z,22.60
2022-12-09T13:50:23.890Z,22.85
2022-12-09T13:55:37.095Z,27.60
2022-12-09T13:58:19.414Z,28.27
2022-12-09T14:01:04.755Z,30.20
2022-12-09T14:03:37.905Z,23.73
2022-12-09T14:06:21.981Z,21.30
2022-12-09T14:08:52.195Z,22.75
2022-12-09T14:11:36.860Z,23.25
2022-12-09T14:14:25.271Z,20.77
2022-12-09T14:16:52.966Z,22.15
2022-12-09T14:19:25.290Z,21.67
2022-12-09T14:22:20.151Z,20.98
2022-12-09T14:25:29.155Z,21.30
2022-12-09T14:28:10.842Z,20.33
2022-12-09T14:30:53.767Z,23.95
2022-12-09T14:33:45.747Z,24.90
2022-12-09T14:36:15.308Z,47.88
2022-12-09T14:42:02.023Z,21.80
2022-12-09T14:44:47.826Z,21.90
2022-12-09T14:47:21.161Z,21.95
2022-12-09T14:49:49.991Z,30.58
2022-12-09T14:52:26.793Z,23.35
2022-12-09T14:54:58.235Z,21.05
2022-12-09T14:57:28.695Z,26.27
2022-12-09T14:59:57.108Z,22.05
2022-12-09T15:02:31.919Z,23.67
2022-12-09T15:05:03.418Z,22.63
2022-12-09T15:07:32.254Z,31.83
2022-12-09T15:10:03.125Z,23.70
2022-12-09T15:12:42.073Z,20.52
2022-12-09T15:15:19.992Z,20.63
2022-12-09T15:18:08.622Z,20.52
2022-12-09T15:20:38.860Z,20.88
2022-12-09T15:23:20.789Z,20.20
2022-12-09T15:25:50.315Z,21.08
2022-12-09T15:28:25.899Z,21.85
2022-12-09T15:31:13.881Z,22.50
2022-12-09T15:33:44.735Z,23.50
2022-12-09T15:36:34.165Z,24.02
2022-12-09T15:39:04.923Z,22.80
2022-12-09T15:42:05.659Z,22.27
2022-12-09T15:44:37.503Z,22.52
2022-12-09T15:47:10.448Z,22.75
2022-12-09T15:49:46.630Z,23.52
2022-12-09T15:52:16.195Z,26.00
2022-12-09T15:54:44.840Z,26.05
2022-12-09T15:57:15.849Z,24.23
2022-12-09T15:59:49.727Z,26.90
2022-12-09T16:02:25.562Z,25.73
2022-12-09T16:04:55.090Z,26.30
2022-12-09T16:07:25.246Z,29.92
2022-12-09T16:10:12.028Z,28.33
2022-12-09T16:12:40.637Z,35.20
2022-12-09T16:15:10.999Z,28.92
2022-12-09T16:17:54.815Z,34.30
2022-12-09T16:20:39.205Z,39.42
2022-12-09T16:23:20.537Z,38.42
2022-12-09T16:25:51.612Z,38.90
2022-12-09T16:28:24.720Z,38.70
2022-12-09T16:30:58.288Z,32.33
2022-12-09T16:36:04.576Z,24.48
2022-12-09T16:38:35.943Z,23.38
2022-12-09T16:41:02.857Z,25.15
2022-12-09T16:43:30.732Z,25.40
2022-12-09T16:46:00.201Z,26.88
2022-12-09T16:48:29.805Z,25.27
2022-12-09T16:51:14.704Z,37.35
2022-12-09T16:53:45.619Z,28.05
2022-12-09T16:56:22.280Z,34.45
2022-12-09T16:58:51.353Z,29.33
2022-12-09T17:01:22.273Z,26.27
2022-12-09T17:03:57.424Z,37.53
2022-12-09T17:06:29.787Z,32.67
2022-12-09T17:08:56.503Z,23.45
2022-12-09T17:11:23.230Z,27.15
2022-12-09T17:13:50.235Z,22.65
2022-12-09T17:16:17.376Z,20.85
2022-12-09T17:18:44.038Z,21.02
2022-12-09T17:21:16.688Z,22.70
2022-12-09T17:23:43.851Z,47.85
2022-12-09T17:26:13.896Z,64.60
2022-12-09T17:28:41.509Z,35.17
2022-12-09T17:31:10.448Z,25.58
2022-12-09T17:33:37.297Z,21.88
2022-12-09T17:36:04.802Z,23.20
2022-12-09T17:38:31.456Z,22.30
2022-12-09T17:41:03.494Z,24.70
2022-12-09T17:43:30.036Z,26.15
2022-12-09T17:46:00.093Z,26.10
2022-12-09T17:48:27.660Z,32.65
2022-12-09T17:50:54.092Z,28.42
2022-12-09T17:55:50.849Z,24.17
2022-12-09T17:58:19.746Z,21.98
2022-12-09T18:00:47.802Z,22.83
2022-12-09T18:03:27.496Z,27.75
2022-12-09T18:06:00.321Z,26.27
2022-12-09T18:08:29.868Z,29.48
2022-12-09T18:10:56.491Z,25.40
2022-12-09T18:13:23.132Z,24.48
2022-12-09T18:15:54.102Z,23.95
2022-12-09T18:18:21.083Z,22.17
2022-12-09T18:20:47.625Z,22.33
2022-12-09T18:23:14.498Z,23.50
2022-12-09T18:25:41.470Z,24.65
2022-12-09T18:28:10.770Z,23.95
2022-12-09T18:30:39.645Z,25.20
2022-12-09T18:33:06.311Z,25.75
2022-12-09T18:35:39.413Z,25.05
2022-12-09T18:38:11.063Z,23.25
2022-12-09T18:41:00.480Z,23.25
2022-12-09T18:43:36.528Z,24.80
2022-12-09T18:46:07.556Z,28.00
2022-12-09T18:48:34.952Z,28.80
2022-12-09T18:51:01.542Z,31.50
2022-12-09T18:53:28.234Z,29.02
2022-12-09T18:55:54.750Z,26.60
2022-12-09T18:58:36.786Z,26.88
2022-12-09T19:01:20.832Z,23.85
2022-12-09T19:03:51.826Z,24.13
2022-12-09T19:06:26.462Z,22.70
2022-12-09T19:08:56.479Z,22.60
2022-12-09T19:11:26.656Z,23.30
2022-12-09T19:13:54.123Z,24.40
2022-12-09T19:16:21.662Z,24.75
2022-12-09T19:18:51.082Z,25.92
2022-12-09T19:21:19.922Z,27.35
2022-12-09T19:23:49.829Z,40.08
2022-12-09T19:26:19.458Z,30.77
2022-12-09T19:28:52.898Z,28.45
2022-12-09T19:31:28.317Z,28.55
2022-12-09T19:33:56.293Z,28.02
2022-12-09T19:36:24.565Z,24.92
2022-12-09T19:38:51.348Z,23.45
2022-12-09T19:41:20.441Z,21.42
2022-12-09T19:43:47.537Z,22.80
2022-12-09T19:46:18.846Z,21.17
2022-12-09T19:48:45.393Z,21.48
2022-12-09T19:51:14.823Z,23.83
2022-12-09T19:53:45.149Z,24.23
2022-12-09T19:56:21.144Z,24.00
2022-12-09T19:58:48.635Z,24.10
2022-12-09T20:01:27.961Z,25.20
2022-12-09T20:04:19.124Z,22.73
2022-12-09T20:06:50.333Z,23.42
2022-12-09T20:09:24.247Z,24.45
2022-12-09T20:11:52.618Z,25.08
2022-12-09T20:14:19.238Z,24.73
2022-12-09T20:16:48.009Z,24.65
2022-12-09T20:19:18.094Z,24.58
2022-12-09T20:21:44.598Z,24.20
2022-12-09T20:24:11.105Z,24.10
2022-12-09T20:26:39.687Z,26.33
2022-12-09T20:29:10.855Z,29.15
2022-12-09T20:31:38.635Z,28.05
2022-12-09T20:34:14.500Z,27.00
2022-12-09T20:36:43.464Z,24.58
2022-12-09T20:39:20.705Z,25.92
2022-12-09T20:41:48.450Z,26.02
2022-12-09T20:44:16.110Z,25.48
2022-12-09T20:46:46.925Z,25.00
2022-12-09T20:49:13.561Z,22.55
2022-12-09T20:51:45.330Z,22.20
2022-12-09T20:54:13.213Z,24.73
2022-12-09T20:56:39.876Z,25.00
2022-12-09T20:59:08.762Z,25.05
2022-12-09T21:01:36.893Z,22.23
2022-12-09T21:04:06.084Z,21.48
2022-12-09T21:06:35.763Z,22.55
2022-12-09T21:09:05.437Z,23.27
2022-12-09T21:11:32.535Z,21.10
2022-12-09T21:14:01.132Z,22.25
2022-12-09T21:16:30.416Z,21.27
2022-12-09T21:18:59.197Z,21.75
2022-12-09T21:21:26.982Z,22.80
2022-12-09T21:23:54.604Z,22.45
2022-12-09T21:26:23.923Z,23.40
2022-12-09T21:28:54.146Z,22.90
2022-12-09T21:31:21.759Z,23.25
2022-12-09T21:33:50.073Z,27.35
2022-12-09T21:36:20.684Z,26.60
2022-12-09T21:38:47.688Z,27.92
2022-12-09T21:41:19.835Z,26.08
2022-12-09T21:43:46.781Z,26.85
2022-12-09T21:46:15.780Z,25.23
2022-12-09T21:48:42.356Z,25.90
2022-12-09T21:51:10.853Z,25.33
2022-12-09T21:53:38.152Z,25.50
2022-12-09T21:56:05.696Z,26.63
2022-12-09T21:58:35.666Z,26.92
2022-12-09T22:01:13.799Z,24.83
2022-12-09T22:03:40.916Z,24.45
2022-12-09T22:06:08.304Z,24.83
2022-12-09T22:08:36.174Z,35.38
2022-12-09T22:11:20.310Z,30.90
2022-12-09T22:13:47.088Z,32.90
2022-12-09T22:16:16.729Z,34.00
2022-12-09T22:18:44.137Z,32.38
2022-12-09T22:21:24.547Z,28.80
2022-12-09T22:23:54.442Z,25.13
2022-12-09T22:26:27.001Z,25.05
2022-12-09T22:28:54.332Z,25.00
2022-12-09T22:31:22.355Z,23.63
2022-12-09T22:33:50.321Z,23.33
2022-12-09T22:36:17.531Z,23.05
2022-12-09T22:38:44.778Z,23.50
2022-12-09T22:41:14.594Z,23.92
2022-12-09T22:43:42.291Z,21.92
2022-12-09T22:46:17.814Z,23.48
2022-12-09T22:48:44.624Z,22.17
2022-12-09T22:51:16.780Z,23.42
2022-12-09T22:53:44.363Z,26.77
2022-12-09T22:56:12.441Z,33.75
2022-12-09T22:58:41.699Z,33.80
2022-12-09T23:01:11.152Z,33.95
2022-12-09T23:03:40.517Z,29.88
2022-12-09T23:06:08.078Z,32.70
2022-12-09T23:08:36.392Z,26.20
2022-12-09T23:11:05.278Z,26.77
2022-12-09T23:13:35.013Z,23.40
2022-12-09T23:16:06.524Z,22.35
2022-12-09T23:18:34.006Z,22.38
2022-12-09T23:21:10.810Z,23.00
2022-12-09T23:23:37.564Z,21.67
2022-12-09T23:26:06.383Z,24.48
2022-12-09T23:28:37.338Z,25.42
2022-12-09T23:31:05.881Z,23.90
2022-12-09T23:33:33.988Z,23.17
2022-12-09T23:36:13.263Z,22.25
2022-12-09T23:38:39.972Z,23.65
2022-12-09T23:41:07.323Z,23.50
2022-12-09T23:43:37.356Z,23.05
2022-12-09T23:46:15.434Z,24.02
2022-12-09T23:48:43.358Z,26.42
2022-12-09T23:51:18.814Z,34.47
2022-12-09T23:53:49.576Z,28.75
2022-12-09T23:56:19.082Z,31.10
2022-12-09T23:58:52.417Z,25.80
